Homeville (West Mifflin), PA

11:03 AM EST on December 10, 2016 (GMT -0500)
West Mifflin | | Change Station

Elev 1070 ft 40.37 °N, 79.89 °W | Updated 3 seconds ago

Overcast
Overcast
25.5 °F
Feels Like 15 °F
N
10.5
Wind Variable Wind from West
Gusts 12.3 mph

Today
High -- | Low -- °F
--% Chance of Precip.
Yesterday
High -- | Low -- °F
Precip. -- in
Pressure 30.52 in
Visibility 10.0 miles
Clouds Overcast 2300 ft
Windchill 15 °F
Dew Point 10 °F
Humidity 50%
Rainfall 0.00 in
Snow Depth Not available.
7:32 AM 4:53 PM
Waxing Gibbous, 84% visible
METAR KAGC 101553Z 26012G16KT 10SM OVC023 M04/M10 A3045 RMK AO2 SNE10 SLP335 P0000 T10391100
Pressure 30.52 in
Visibility 10.0 miles
Clouds Overcast 2300 ft
Windchill 15 °F
Dew Point 10 °F
Humidity 50%
Rainfall 0.00 in
Snow Depth Not available.
7:32 AM 4:53 PM
Waxing Gibbous, 84% visible
METAR KAGC 101553Z 26012G16KT 10SM OVC023 M04/M10 A3045 RMK AO2 SNE10 SLP335 P0000 T10391100

10-Day Weather Forecast

Almanac

Astronomy

Dec. 10, 2016 Rise Set
Actual Time
Civil Twilight
Nautical Twilight
Astronomical Twilight
Moon
Length of Visible Light
Length of Day
Tomorrow will be .
, % of the Moon is Illuminated

Today's Extremes

State Highs State Lows

Community

WunderPhotos

Upload Photos

1,956,569 photos uploaded!

WunderBlog® & News

Nearby

Air Quality

  Air Quality AQ Index Pollutant
Not available.

Snow Depth

Station Depth Elevation

Earthquake Activity

City Distance Mag. Time & Date
Minimum magnitude displayed is 2.5.

Coastal Water Temperatures

Place Temperature

Stations

Nearby Weather Stations

Station Location Temp. Windchill Dew Point Humidity Wind Precip. Elev Updated Type
                   

Watches & Warnings

There are currently no watches in effect.